sensor_id;sensor_type;location;lat;lon;timestamp;pressure;altitude;pressure_sealevel;temperature;humidity
51617;BME280;37697;52.588;13.394;2023-01-28T00:00:35;102200.88;;;-2.21;88.16
51617;BME280;37697;52.588;13.394;2023-01-28T00:06:02;102200.84;;;-2.29;88.10
51617;BME280;37697;52.588;13.394;2023-01-28T00:11:06;102198.42;;;-2.34;88.14
51617;BME280;37697;52.588;13.394;2023-01-28T00:16:09;102202.91;;;-2.41;88.09
51617;BME280;37697;52.588;13.394;2023-01-28T00:21:14;102208.22;;;-2.49;87.87
51617;BME280;37697;52.588;13.394;2023-01-28T00:26:17;102211.70;;;-2.58;87.78
51617;BME280;37697;52.588;13.394;2023-01-28T00:31:22;102217.50;;;-2.63;88.01
51617;BME280;37697;52.588;13.394;2023-01-28T00:36:27;102215.14;;;-2.70;88.16
51617;BME280;37697;52.588;13.394;2023-01-28T00:41:30;102217.08;;;-2.75;88.28
51617;BME280;37697;52.588;13.394;2023-01-28T00:46:33;102214.50;;;-2.79;88.34
51617;BME280;37697;52.588;13.394;2023-01-28T00:51:36;102216.31;;;-2.84;88.14
51617;BME280;37697;52.588;13.394;2023-01-28T00:56:39;102221.17;;;-2.89;87.99
51617;BME280;37697;52.588;13.394;2023-01-28T01:01:42;102222.89;;;-2.94;88.12
51617;BME280;37697;52.588;13.394;2023-01-28T01:06:45;102226.71;;;-2.98;88.24
51617;BME280;37697;52.588;13.394;2023-01-28T01:11:47;102223.36;;;-3.00;88.33
51617;BME280;37697;52.588;13.394;2023-01-28T01:16:50;102221.54;;;-3.01;88.35
51617;BME280;37697;52.588;13.394;2023-01-28T01:21:53;102218.38;;;-3.02;88.44
51617;BME280;37697;52.588;13.394;2023-01-28T01:26:55;102219.52;;;-3.01;88.61
51617;BME280;37697;52.588;13.394;2023-01-28T01:31:59;102222.39;;;-2.98;88.76
51617;BME280;37697;52.588;13.394;2023-01-28T01:37:02;102226.92;;;-2.94;88.77
51617;BME280;37697;52.588;13.394;2023-01-28T01:42:12;102225.48;;;-2.89;89.39
51617;BME280;37697;52.588;13.394;2023-01-28T01:47:16;102227.41;;;-2.85;89.44
51617;BME280;37697;52.588;13.394;2023-01-28T01:52:26;102230.73;;;-2.83;89.46
51617;BME280;37697;52.588;13.394;2023-01-28T01:57:32;102235.30;;;-2.79;89.52
51617;BME280;37697;52.588;13.394;2023-01-28T02:02:42;102239.52;;;-2.75;89.68
51617;BME280;37697;52.588;13.394;2023-01-28T02:07:47;102240.71;;;-2.71;89.79
51617;BME280;37697;52.588;13.394;2023-01-28T02:12:54;102240.73;;;-2.67;89.96
51617;BME280;37697;52.588;13.394;2023-01-28T02:17:59;102232.91;;;-2.65;89.97
51617;BME280;37697;52.588;13.394;2023-01-28T02:23:18;102225.89;;;-2.61;90.02
51617;BME280;37697;52.588;13.394;2023-01-28T02:28:44;102226.30;;;-2.59;90.14
51617;BME280;37697;52.588;13.394;2023-01-28T02:33:56;102230.13;;;-2.56;90.22
51617;BME280;37697;52.588;13.394;2023-01-28T02:39:08;102231.09;;;-2.53;90.35
51617;BME280;37697;52.588;13.394;2023-01-28T02:44:14;102238.71;;;-2.51;90.40
51617;BME280;37697;52.588;13.394;2023-01-28T02:49:26;102239.15;;;-2.49;90.65
51617;BME280;37697;52.588;13.394;2023-01-28T02:54:57;102239.19;;;-2.46;90.63
51617;BME280;37697;52.588;13.394;2023-01-28T03:00:08;102240.04;;;-2.43;90.44
51617;BME280;37697;52.588;13.394;2023-01-28T03:05:21;102238.88;;;-2.42;90.42
51617;BME280;37697;52.588;13.394;2023-01-28T03:10:25;102236.23;;;-2.37;90.60
51617;BME280;37697;52.588;13.394;2023-01-28T03:15:33;102240.39;;;-2.35;90.71
51617;BME280;37697;52.588;13.394;2023-01-28T03:21:11;102238.52;;;-2.32;90.66
51617;BME280;37697;52.588;13.394;2023-01-28T03:26:46;102237.35;;;-2.31;90.74
51617;BME280;37697;52.588;13.394;2023-01-28T03:32:09;102237.77;;;-2.28;90.74
51617;BME280;37697;52.588;13.394;2023-01-28T03:37:32;102242.70;;;-2.24;90.66
51617;BME280;37697;52.588;13.394;2023-01-28T03:42:35;102240.98;;;-2.20;90.72
51617;BME280;37697;52.588;13.394;2023-01-28T03:47:38;102233.14;;;-2.17;90.71
51617;BME280;37697;52.588;13.394;2023-01-28T03:52:42;102234.05;;;-2.19;90.32
51617;BME280;37697;52.588;13.394;2023-01-28T03:57:44;102232.24;;;-2.17;90.32
51617;BME280;37697;52.588;13.394;2023-01-28T04:02:47;102237.23;;;-2.16;90.35
51617;BME280;37697;52.588;13.394;2023-01-28T04:07:53;102228.64;;;-2.14;90.37
51617;BME280;37697;52.588;13.394;2023-01-28T04:12:56;102233.63;;;-2.12;90.41
51617;BME280;37697;52.588;13.394;2023-01-28T04:17:58;102234.84;;;-2.09;90.29
51617;BME280;37697;52.588;13.394;2023-01-28T04:23:03;102234.38;;;-2.06;90.40
51617;BME280;37697;52.588;13.394;2023-01-28T04:28:06;102235.69;;;-2.05;90.08
51617;BME280;37697;52.588;13.394;2023-01-28T04:33:10;102234.87;;;-2.05;90.23
51617;BME280;37697;52.588;13.394;2023-01-28T04:38:13;102241.67;;;-2.03;90.13
51617;BME280;37697;52.588;13.394;2023-01-28T04:43:15;102240.02;;;-2.01;90.09
51617;BME280;37697;52.588;13.394;2023-01-28T04:48:18;102236.46;;;-2.01;90.16
51617;BME280;37697;52.588;13.394;2023-01-28T04:53:21;102233.08;;;-2.00;90.19
51617;BME280;37697;52.588;13.394;2023-01-28T04:58:24;102230.39;;;-1.99;90.23
51617;BME280;37697;52.588;13.394;2023-01-28T05:03:27;102227.16;;;-1.96;90.47
51617;BME280;37697;52.588;13.394;2023-01-28T05:08:30;102229.89;;;-1.93;90.51
51617;BME280;37697;52.588;13.394;2023-01-28T05:13:33;102236.71;;;-1.93;90.54
51617;BME280;37697;52.588;13.394;2023-01-28T05:18:35;102246.50;;;-1.92;90.48
51617;BME280;37697;52.588;13.394;2023-01-28T05:23:39;102248.39;;;-1.91;90.41
51617;BME280;37697;52.588;13.394;2023-01-28T05:28:41;102258.45;;;-1.89;90.45
51617;BME280;37697;52.588;13.394;2023-01-28T05:33:44;102258.26;;;-1.86;90.37
51617;BME280;37697;52.588;13.394;2023-01-28T05:38:47;102259.19;;;-1.83;90.16
51617;BME280;37697;52.588;13.394;2023-01-28T05:43:49;102255.64;;;-1.81;89.77
51617;BME280;37697;52.588;13.394;2023-01-28T05:48:52;102252.77;;;-1.78;89.78
51617;BME280;37697;52.588;13.394;2023-01-28T05:53:55;102255.80;;;-1.76;89.84
51617;BME280;37697;52.588;13.394;2023-01-28T05:58:58;102253.52;;;-1.77;89.92
51617;BME280;37697;52.588;13.394;2023-01-28T06:04:00;102257.09;;;-1.76;89.68
51617;BME280;37697;52.588;13.394;2023-01-28T06:09:03;102256.17;;;-1.74;89.72
51617;BME280;37697;52.588;13.394;2023-01-28T06:14:05;102252.94;;;-1.70;89.75
51617;BME280;37697;52.588;13.394;2023-01-28T06:19:08;102259.69;;;-1.69;89.49
51617;BME280;37697;52.588;13.394;2023-01-28T06:24:11;102262.05;;;-1.69;89.52
51617;BME280;37697;52.588;13.394;2023-01-28T06:29:14;102267.70;;;-1.67;89.44
51617;BME280;37697;52.588;13.394;2023-01-28T06:34:18;102269.84;;;-1.66;89.44
51617;BME280;37697;52.588;13.394;2023-01-28T06:39:21;102271.51;;;-1.63;89.24
51617;BME280;37697;52.588;13.394;2023-01-28T06:44:24;102273.05;;;-1.59;89.22
51617;BME280;37697;52.588;13.394;2023-01-28T06:49:27;102274.05;;;-1.59;89.40
51617;BME280;37697;52.588;13.394;2023-01-28T06:54:30;102275.94;;;-1.59;89.57
51617;BME280;37697;52.588;13.394;2023-01-28T06:59:33;102272.92;;;-1.60;89.20
51617;BME280;37697;52.588;13.394;2023-01-28T07:04:35;102279.17;;;-1.59;89.04
51617;BME280;37697;52.588;13.394;2023-01-28T07:09:38;102283.84;;;-1.58;88.71
51617;BME280;37697;52.588;13.394;2023-01-28T07:14:41;102285.88;;;-1.55;88.28
51617;BME280;37697;52.588;13.394;2023-01-28T07:19:44;102288.61;;;-1.49;88.34
51617;BME280;37697;52.588;13.394;2023-01-28T07:24:47;102285.27;;;-1.43;88.54
51617;BME280;37697;52.588;13.394;2023-01-28T07:29:49;102288.84;;;-1.38;88.51
51617;BME280;37697;52.588;13.394;2023-01-28T07:34:52;102285.73;;;-1.35;88.15
51617;BME280;37697;52.588;13.394;2023-01-28T07:39:55;102288.90;;;-1.31;87.65
51617;BME280;37697;52.588;13.394;2023-01-28T07:44:58;102285.93;;;-1.29;87.62
51617;BME280;37697;52.588;13.394;2023-01-28T07:50:00;102291.63;;;-1.27;87.59
51617;BME280;37697;52.588;13.394;2023-01-28T07:55:04;102288.95;;;-1.22;87.60
51617;BME280;37697;52.588;13.394;2023-01-28T08:00:07;102289.09;;;-1.17;87.56
51617;BME280;37697;52.588;13.394;2023-01-28T08:05:10;102289.48;;;-1.12;87.13
51617;BME280;37697;52.588;13.394;2023-01-28T08:10:14;102299.00;;;-1.06;87.16
51617;BME280;37697;52.588;13.394;2023-01-28T08:15:19;102307.44;;;-1.01;86.79
51617;BME280;37697;52.588;13.394;2023-01-28T08:20:23;102308.65;;;-0.94;86.41
51617;BME280;37697;52.588;13.394;2023-01-28T08:25:26;102310.60;;;-0.88;86.31
51617;BME280;37697;52.588;13.394;2023-01-28T08:30:29;102314.93;;;-0.81;85.85
51617;BME280;37697;52.588;13.394;2023-01-28T08:35:33;102325.26;;;-0.74;85.62
51617;BME280;37697;52.588;13.394;2023-01-28T08:40:37;102331.64;;;-0.66;85.41
51617;BME280;37697;52.588;13.394;2023-01-28T08:45:40;102328.52;;;-0.60;85.47
51617;BME280;37697;52.588;13.394;2023-01-28T08:50:44;102333.47;;;-0.53;85.14
51617;BME280;37697;52.588;13.394;2023-01-28T08:55:47;102330.48;;;-0.49;84.47
51617;BME280;37697;52.588;13.394;2023-01-28T09:00:49;102337.52;;;-0.45;84.77
51617;BME280;37697;52.588;13.394;2023-01-28T09:05:52;102342.71;;;-0.37;84.63
51617;BME280;37697;52.588;13.394;2023-01-28T09:10:56;102346.91;;;-0.27;84.70
51617;BME280;37697;52.588;13.394;2023-01-28T09:15:59;102353.26;;;-0.22;84.63
51617;BME280;37697;52.588;13.394;2023-01-28T09:21:04;102356.80;;;-0.17;84.16
51617;BME280;37697;52.588;13.394;2023-01-28T09:26:07;102361.15;;;-0.13;83.34
51617;BME280;37697;52.588;13.394;2023-01-28T09:31:11;102369.63;;;-0.07;82.81
51617;BME280;37697;52.588;13.394;2023-01-28T09:36:14;102368.29;;;-0.01;82.75
51617;BME280;37697;52.588;13.394;2023-01-28T09:41:25;102374.02;;;0.06;82.46
51617;BME280;37697;52.588;13.394;2023-01-28T09:46:33;102376.02;;;0.13;82.53
51617;BME280;37697;52.588;13.394;2023-01-28T09:51:41;102380.02;;;0.12;81.57
51617;BME280;37697;52.588;13.394;2023-01-28T09:56:45;102378.32;;;0.16;81.24
51617;BME280;37697;52.588;13.394;2023-01-28T10:07:26;102379.77;;;0.25;80.65
51617;BME280;37697;52.588;13.394;2023-01-28T10:12:47;102377.13;;;0.31;80.81
51617;BME280;37697;52.588;13.394;2023-01-28T10:17:54;102368.71;;;0.32;80.04
51617;BME280;37697;52.588;13.394;2023-01-28T10:23:23;102370.88;;;0.38;80.19
51617;BME280;37697;52.588;13.394;2023-01-28T10:28:28;102366.84;;;0.44;79.83
51617;BME280;37697;52.588;13.394;2023-01-28T10:33:36;102360.39;;;0.51;79.37
51617;BME280;37697;52.588;13.394;2023-01-28T10:38:39;102351.85;;;0.56;79.29
51617;BME280;37697;52.588;13.394;2023-01-28T10:43:42;102357.48;;;0.61;79.27
51617;BME280;37697;52.588;13.394;2023-01-28T10:49:34;102355.10;;;0.64;78.70
51617;BME280;37697;52.588;13.394;2023-01-28T10:54:37;102351.27;;;0.58;78.51
51617;BME280;37697;52.588;13.394;2023-01-28T10:59:40;102349.55;;;0.62;78.66
51617;BME280;37697;52.588;13.394;2023-01-28T11:04:43;102350.01;;;0.67;78.55
51617;BME280;37697;52.588;13.394;2023-01-28T11:09:49;102354.84;;;0.73;78.47
51617;BME280;37697;52.588;13.394;2023-01-28T11:14:56;102349.91;;;0.77;78.38
51617;BME280;37697;52.588;13.394;2023-01-28T11:20:08;102350.83;;;0.78;77.90
51617;BME280;37697;52.588;13.394;2023-01-28T11:25:17;102343.00;;;0.75;77.80
51617;BME280;37697;52.588;13.394;2023-01-28T11:30:24;102337.53;;;0.72;77.52
51617;BME280;37697;52.588;13.394;2023-01-28T11:35:29;102336.23;;;0.72;77.45
51617;BME280;37697;52.588;13.394;2023-01-28T11:40:32;102334.16;;;0.74;77.55
51617;BME280;37697;52.588;13.394;2023-01-28T11:45:45;102319.91;;;0.77;77.58
51617;BME280;37697;52.588;13.394;2023-01-28T11:51:03;102315.61;;;0.77;77.33
51617;BME280;37697;52.588;13.394;2023-01-28T12:01:36;102312.98;;;0.76;77.41
51617;BME280;37697;52.588;13.394;2023-01-28T12:07:15;102313.25;;;0.74;77.49
51617;BME280;37697;52.588;13.394;2023-01-28T12:18:10;102299.36;;;0.72;77.11
51617;BME280;37697;52.588;13.394;2023-01-28T12:34:36;102309.05;;;0.73;77.11
51617;BME280;37697;52.588;13.394;2023-01-28T12:45:14;102295.27;;;0.76;77.41
51617;BME280;37697;52.588;13.394;2023-01-28T12:50:28;102283.61;;;0.79;77.28
51617;BME280;37697;52.588;13.394;2023-01-28T12:55:43;102286.05;;;0.75;77.10
51617;BME280;37697;52.588;13.394;2023-01-28T13:00:53;102284.02;;;0.75;77.14
51617;BME280;37697;52.588;13.394;2023-01-28T13:06:07;102277.72;;;0.77;77.13
51617;BME280;37697;52.588;13.394;2023-01-28T13:11:14;102268.23;;;0.74;76.94
51617;BME280;37697;52.588;13.394;2023-01-28T13:16:18;102255.06;;;0.75;76.98
51617;BME280;37697;52.588;13.394;2023-01-28T13:21:37;102250.63;;;0.82;76.49
51617;BME280;37697;52.588;13.394;2023-01-28T13:26:54;102245.18;;;0.86;76.29
51617;BME280;37697;52.588;13.394;2023-01-28T13:32:02;102246.36;;;0.89;76.14
51617;BME280;37697;52.588;13.394;2023-01-28T13:37:28;102238.65;;;0.92;75.78
51617;BME280;37697;52.588;13.394;2023-01-28T13:42:32;102241.78;;;0.93;75.49
51617;BME280;37697;52.588;13.394;2023-01-28T13:47:36;102238.43;;;0.93;75.33
51617;BME280;37697;52.588;13.394;2023-01-28T13:52:54;102240.03;;;0.95;75.21
51617;BME280;37697;52.588;13.394;2023-01-28T14:14:35;102222.61;;;0.99;74.60
51617;BME280;37697;52.588;13.394;2023-01-28T14:19:46;102216.96;;;0.96;74.24
51617;BME280;37697;52.588;13.394;2023-01-28T14:24:50;102213.02;;;0.98;74.24
51617;BME280;37697;52.588;13.394;2023-01-28T14:35:34;102241.16;;;0.81;74.09
51617;BME280;37697;52.588;13.394;2023-01-28T14:40:41;102239.88;;;0.78;74.05
51617;BME280;37697;52.588;13.394;2023-01-28T14:51:14;102248.36;;;0.66;73.67
51617;BME280;37697;52.588;13.394;2023-01-28T15:01:45;102251.88;;;0.52;73.69
51617;BME280;37697;52.588;13.394;2023-01-28T15:06:48;102243.98;;;0.49;73.77
51617;BME280;37697;52.588;13.394;2023-01-28T15:11:55;102248.26;;;0.46;73.96
51617;BME280;37697;52.588;13.394;2023-01-28T15:16:59;102242.36;;;0.44;74.13
51617;BME280;37697;52.588;13.394;2023-01-28T15:22:05;102245.01;;;0.41;73.88
51617;BME280;37697;52.588;13.394;2023-01-28T15:27:23;102240.19;;;0.36;74.18
51617;BME280;37697;52.588;13.394;2023-01-28T15:32:30;102238.89;;;0.34;74.31
51617;BME280;37697;52.588;13.394;2023-01-28T15:37:32;102242.02;;;0.31;74.31
51617;BME280;37697;52.588;13.394;2023-01-28T15:42:35;102236.11;;;0.30;74.62
51617;BME280;37697;52.588;13.394;2023-01-28T15:47:39;102247.34;;;0.28;74.58
51617;BME280;37697;52.588;13.394;2023-01-28T15:52:42;102260.40;;;0.23;74.40
51617;BME280;37697;52.588;13.394;2023-01-28T15:57:47;102261.98;;;0.16;74.26
51617;BME280;37697;52.588;13.394;2023-01-28T16:02:53;102268.10;;;0.12;74.28
51617;BME280;37697;52.588;13.394;2023-01-28T16:07:57;102282.73;;;0.08;74.20
51617;BME280;37697;52.588;13.394;2023-01-28T16:13:05;102281.48;;;0.01;74.12
51617;BME280;37697;52.588;13.394;2023-01-28T16:18:28;102281.11;;;-0.04;74.25
51617;BME280;37697;52.588;13.394;2023-01-28T16:23:31;102277.20;;;-0.07;74.31
51617;BME280;37697;52.588;13.394;2023-01-28T16:28:34;102254.58;;;-0.11;74.21
51617;BME280;37697;52.588;13.394;2023-01-28T16:33:36;102263.78;;;-0.16;74.17
51617;BME280;37697;52.588;13.394;2023-01-28T16:38:39;102261.13;;;-0.26;73.95
51617;BME280;37697;52.588;13.394;2023-01-28T16:43:42;102274.85;;;-0.30;73.87
51617;BME280;37697;52.588;13.394;2023-01-28T16:48:45;102279.75;;;-0.32;74.17
51617;BME280;37697;52.588;13.394;2023-01-28T16:53:48;102284.27;;;-0.29;74.24
51617;BME280;37697;52.588;13.394;2023-01-28T16:58:52;102294.72;;;-0.31;74.32
51617;BME280;37697;52.588;13.394;2023-01-28T17:03:55;102295.65;;;-0.33;74.33
51617;BME280;37697;52.588;13.394;2023-01-28T17:08:58;102303.28;;;-0.36;74.06
51617;BME280;37697;52.588;13.394;2023-01-28T17:14:01;102316.00;;;-0.39;73.96
51617;BME280;37697;52.588;13.394;2023-01-28T17:19:05;102312.25;;;-0.41;73.74
51617;BME280;37697;52.588;13.394;2023-01-28T17:24:08;102325.95;;;-0.43;73.99
51617;BME280;37697;52.588;13.394;2023-01-28T17:29:10;102339.52;;;-0.44;74.14
51617;BME280;37697;52.588;13.394;2023-01-28T17:34:13;102335.67;;;-0.46;73.87
51617;BME280;37697;52.588;13.394;2023-01-28T17:39:16;102339.44;;;-0.49;73.95
51617;BME280;37697;52.588;13.394;2023-01-28T17:44:18;102323.36;;;-0.53;73.90
51617;BME280;37697;52.588;13.394;2023-01-28T17:49:21;102319.23;;;-0.56;73.83
51617;BME280;37697;52.588;13.394;2023-01-28T17:54:24;102316.71;;;-0.58;74.11
51617;BME280;37697;52.588;13.394;2023-01-28T17:59:27;102312.59;;;-0.61;74.16
51617;BME280;37697;52.588;13.394;2023-01-28T18:04:29;102322.93;;;-0.67;74.08
51617;BME280;37697;52.588;13.394;2023-01-28T18:09:32;102330.13;;;-0.74;74.22
51617;BME280;37697;52.588;13.394;2023-01-28T18:14:36;102323.68;;;-0.81;74.15
51617;BME280;37697;52.588;13.394;2023-01-28T18:19:39;102311.45;;;-0.87;74.44
51617;BME280;37697;52.588;13.394;2023-01-28T18:24:41;102316.34;;;-0.91;74.64
51617;BME280;37697;52.588;13.394;2023-01-28T18:29:44;102313.21;;;-0.98;74.56
51617;BME280;37697;52.588;13.394;2023-01-28T18:34:46;102314.01;;;-1.06;74.65
51617;BME280;37697;52.588;13.394;2023-01-28T18:39:49;102316.29;;;-1.11;74.99
51617;BME280;37697;52.588;13.394;2023-01-28T18:44:51;102316.63;;;-1.14;75.23
51617;BME280;37697;52.588;13.394;2023-01-28T18:49:54;102311.83;;;-1.18;75.17
51617;BME280;37697;52.588;13.394;2023-01-28T18:54:57;102317.15;;;-1.20;75.28
51617;BME280;37697;52.588;13.394;2023-01-28T18:59:59;102325.02;;;-1.18;75.23
51617;BME280;37697;52.588;13.394;2023-01-28T19:05:03;102314.30;;;-1.17;75.31
51617;BME280;37697;52.588;13.394;2023-01-28T19:10:06;102309.13;;;-1.15;75.23
51617;BME280;37697;52.588;13.394;2023-01-28T19:15:09;102309.42;;;-1.14;75.39
51617;BME280;37697;52.588;13.394;2023-01-28T19:20:12;102309.67;;;-1.14;75.37
51617;BME280;37697;52.588;13.394;2023-01-28T19:25:15;102319.84;;;-1.14;75.28
51617;BME280;37697;52.588;13.394;2023-01-28T19:30:19;102315.35;;;-1.12;75.29
51617;BME280;37697;52.588;13.394;2023-01-28T19:35:21;102304.27;;;-1.14;75.29
51617;BME280;37697;52.588;13.394;2023-01-28T19:40:25;102300.07;;;-1.16;75.28
51617;BME280;37697;52.588;13.394;2023-01-28T19:45:28;102306.00;;;-1.19;75.17
51617;BME280;37697;52.588;13.394;2023-01-28T19:50:31;102311.83;;;-1.21;75.47
51617;BME280;37697;52.588;13.394;2023-01-28T19:55:36;102313.73;;;-1.22;75.31
51617;BME280;37697;52.588;13.394;2023-01-28T20:00:40;102325.86;;;-1.23;75.33
51617;BME280;37697;52.588;13.394;2023-01-28T20:05:42;102330.38;;;-1.27;75.34
51617;BME280;37697;52.588;13.394;2023-01-28T20:10:45;102342.87;;;-1.29;75.52
51617;BME280;37697;52.588;13.394;2023-01-28T20:15:47;102344.04;;;-1.31;75.55
51617;BME280;37697;52.588;13.394;2023-01-28T20:20:52;102324.65;;;-1.34;75.50
51617;BME280;37697;52.588;13.394;2023-01-28T20:25:56;102322.38;;;-1.39;75.70
51617;BME280;37697;52.588;13.394;2023-01-28T20:31:04;102313.91;;;-1.44;75.79
51617;BME280;37697;52.588;13.394;2023-01-28T20:36:10;102307.19;;;-1.51;75.69
51617;BME280;37697;52.588;13.394;2023-01-28T20:41:21;102303.81;;;-1.55;75.80
51617;BME280;37697;52.588;13.394;2023-01-28T20:46:27;102304.87;;;-1.56;75.93
51617;BME280;37697;52.588;13.394;2023-01-28T20:51:32;102309.92;;;-1.58;76.02
51617;BME280;37697;52.588;13.394;2023-01-28T20:56:37;102308.15;;;-1.59;76.09
51617;BME280;37697;52.588;13.394;2023-01-28T21:01:41;102303.16;;;-1.64;76.15
51617;BME280;37697;52.588;13.394;2023-01-28T21:06:43;102312.16;;;-1.66;76.25
51617;BME280;37697;52.588;13.394;2023-01-28T21:11:46;102309.73;;;-1.74;76.13
51617;BME280;37697;52.588;13.394;2023-01-28T21:16:49;102302.26;;;-1.79;76.41
51617;BME280;37697;52.588;13.394;2023-01-28T21:21:54;102296.86;;;-1.87;76.48
51617;BME280;37697;52.588;13.394;2023-01-28T21:26:57;102292.92;;;-1.92;76.65
51617;BME280;37697;52.588;13.394;2023-01-28T21:31:59;102283.57;;;-1.93;76.73
51617;BME280;37697;52.588;13.394;2023-01-28T21:37:02;102285.11;;;-1.99;76.78
51617;BME280;37697;52.588;13.394;2023-01-28T21:42:04;102286.52;;;-2.03;76.95
51617;BME280;37697;52.588;13.394;2023-01-28T21:47:07;102284.64;;;-2.07;77.08
51617;BME280;37697;52.588;13.394;2023-01-28T21:52:11;102287.36;;;-2.08;77.12
51617;BME280;37697;52.588;13.394;2023-01-28T21:57:13;102283.60;;;-2.12;77.20
51617;BME280;37697;52.588;13.394;2023-01-28T22:02:16;102276.50;;;-2.14;77.27
51617;BME280;37697;52.588;13.394;2023-01-28T22:14:14;102274.89;;;-2.13;77.60
51617;BME280;37697;52.588;13.394;2023-01-28T22:19:17;102264.64;;;-2.13;77.63
51617;BME280;37697;52.588;13.394;2023-01-28T22:24:21;102255.43;;;-2.14;77.70
51617;BME280;37697;52.588;13.394;2023-01-28T22:29:26;102269.80;;;-2.12;77.88
51617;BME280;37697;52.588;13.394;2023-01-28T22:34:28;102260.07;;;-2.11;77.91
51617;BME280;37697;52.588;13.394;2023-01-28T22:39:31;102261.81;;;-2.11;77.89
51617;BME280;37697;52.588;13.394;2023-01-28T22:44:33;102272.79;;;-2.07;78.09
51617;BME280;37697;52.588;13.394;2023-01-28T22:49:36;102265.42;;;-2.06;78.12
51617;BME280;37697;52.588;13.394;2023-01-28T22:54:38;102254.30;;;-2.01;78.20
51617;BME280;37697;52.588;13.394;2023-01-28T22:59:41;102249.80;;;-1.99;78.20
51617;BME280;37697;52.588;13.394;2023-01-28T23:04:59;102246.67;;;-1.97;78.14
51617;BME280;37697;52.588;13.394;2023-01-28T23:10:03;102244.75;;;-1.95;78.22
51617;BME280;37697;52.588;13.394;2023-01-28T23:15:08;102232.27;;;-1.93;78.08
51617;BME280;37697;52.588;13.394;2023-01-28T23:20:30;102227.16;;;-1.91;78.05
51617;BME280;37697;52.588;13.394;2023-01-28T23:25:52;102217.29;;;-1.90;78.35
51617;BME280;37697;52.588;13.394;2023-01-28T23:30:55;102216.66;;;-1.89;78.26
51617;BME280;37697;52.588;13.394;2023-01-28T23:35:58;102206.95;;;-1.88;78.29
51617;BME280;37697;52.588;13.394;2023-01-28T23:41:00;102198.12;;;-1.88;78.45
51617;BME280;37697;52.588;13.394;2023-01-28T23:46:03;102195.71;;;-1.87;78.42
51617;BME280;37697;52.588;13.394;2023-01-28T23:51:06;102196.23;;;-1.86;78.46
51617;BME280;37697;52.588;13.394;2023-01-28T23:56:11;102194.28;;;-1.83;78.62
